Billings Logan International Airport Billings US
ICAO: KBIL
IATA: BIL
Category: Large
Scheduled Services: Yes

Elevation: 3652 ft
TransAlt. 18000 ft.

Airport Communications:
APP/DEP:119.2
ATIS:126.3
CLNC DEL:121.9
GND:121.9
GREAT FALLS RDO:122.55
TWR:124.2
UNICOM:122.95

KBIL Zoom In..

If you have problems with the map follow the link
https://www.worldairports.se/pages/airport.php?
ICAO=KBIL

Runways:

(A) RW 07 length 5503 ft width 75 ft
---- / hdg 70

(B) RW 10L length 10521 ft width 150 ft
ILS 110.30 / hdg 98

(C) RW 10R length 3800 ft width 75 ft
---- / hdg 98

(D) RW 25 length 5503 ft width 75 ft
---- / hdg 250

(E) RW 28L length 3800 ft width 75 ft
---- / hdg 278

(F) RW 28R length 10521 ft width 150 ft
ILS 111.50 / hdg 278

Location; KBIL
Day. 28 / Time. 12.53 Zulu
* Altimeter: 30.04
* Temperature: -03° c. -26.6°f.
* Wind from: 230° Speed 11 kn.
Dewpoint: -08° c.
Visibility: 10 Statute Miles.
Clouds: Few 22000 ft.

KBIL 281253Z 23011KT 10SM FEW220 M03/M08 A3004 RMK AO2 SLP200 T10331078


Wind From 230°
Speed 11 kn.

 
 
jpsmedia worldairports.se 2020   terms of use